TAF MSSS
MSSS 270325Z 2706/2806 35010KT 9999 SCT040 TX30/2719Z TN18/2711Z=
METAR MSSS
MSSS 262050Z 04007KT 9999 FEW033 29/17 Q1014 A2995=
MSSS 261950Z 34009KT 9999 FEW030 29/18 Q1015 A2997=
MSSS 261750Z 35007KT CAVOK 27/17 Q1017 A3003=
MSSS 261650Z 36008KT CAVOK 26/17 Q1018 A3007=
MSSS 261550Z 01006KT CAVOK 25/17 Q1018 A3009=
WC MSSS
WS MSSS
WV MSSS